Time;durP1;ratioP1;P1;durP2;ratioP2;P2;SDS_P1;SDS_P2;PMS_P1;PMS_P2;Temp;Humidity;BMP_temperature;BMP_pressure;BME280_temperature;BME280_humidity;BME280_pressure;Samples;Min_cycle;Max_cycle;Signal;HPM_P1;HPM_P2
2024/03/07 00:00:18;;;;;;;22.90;17.40;;;;;;;9.44;45.87;101979.92;110625;1260;22136;-55
2024/03/07 00:02:48;;;;;;;27.80;18.30;;;;;;;9.40;46.09;101980.44;109864;1255;1002269;-55
2024/03/07 00:05:15;;;;;;;26.00;17.70;;;;;;;9.37;46.17;101980.61;110677;1254;22394;-54
2024/03/07 00:07:42;;;;;;;27.50;17.40;;;;;;;9.36;46.15;101981.28;110646;1254;22369;-55
2024/03/07 00:10:09;;;;;;;27.90;19.00;;;;;;;9.34;46.27;101982.67;110650;1251;22265;-55
2024/03/07 00:12:38;;;;;;;37.20;18.30;;;;;;;9.32;46.37;101984.40;110501;1263;22862;-54
2024/03/07 00:15:06;;;;;;;23.60;16.50;;;;;;;9.30;46.29;101988.20;110615;1254;22275;-55
2024/03/07 00:17:35;;;;;;;28.70;17.10;;;;;;;9.29;46.25;101984.21;110661;1257;22980;-55
2024/03/07 00:20:04;;;;;;;25.10;18.80;;;;;;;9.28;46.09;101984.73;109822;1254;1002218;-55
2024/03/07 00:22:31;;;;;;;29.70;17.90;;;;;;;9.24;45.89;101982.13;110644;1263;22138;-54
2024/03/07 00:24:59;;;;;;;27.80;17.10;;;;;;;9.22;45.90;101982.80;110622;1260;22192;-54
2024/03/07 00:27:26;;;;;;;29.30;18.70;;;;;;;9.19;45.73;101980.70;110625;1254;22109;-54
2024/03/07 00:29:53;;;;;;;28.90;18.60;;;;;;;9.16;45.55;101982.26;110547;1265;23001;-54
2024/03/07 00:32:23;;;;;;;29.80;18.40;;;;;;;9.10;45.74;101981.02;109828;1263;1002427;-55
2024/03/07 00:34:50;;;;;;;28.90;19.00;;;;;;;9.07;45.85;101978.25;110664;1256;22948;-55
2024/03/07 00:37:17;;;;;;;27.70;18.40;;;;;;;9.05;45.85;101978.93;109892;1251;1002661;-55
2024/03/07 00:39:45;;;;;;;24.60;18.00;;;;;;;9.04;46.04;101976.85;110572;1263;23288;-55
2024/03/07 00:42:11;;;;;;;32.10;17.20;;;;;;;9.05;46.06;101981.01;110645;1251;22105;-54
2024/03/07 00:44:38;;;;;;;26.20;17.80;;;;;;;9.07;46.02;101980.84;110630;1255;22438;-54
2024/03/07 00:47:05;;;;;;;26.50;17.20;;;;;;;9.06;46.12;101980.50;110677;1254;22969;-55
2024/03/07 00:49:32;;;;;;;27.30;18.20;;;;;;;9.06;46.11;101980.68;110672;1256;22110;-54
2024/03/07 00:51:59;;;;;;;25.50;17.90;;;;;;;9.05;45.81;101982.74;110630;1254;22308;-54
2024/03/07 00:54:26;;;;;;;28.00;18.50;;;;;;;9.04;45.90;101982.22;110608;1266;23156;-55
2024/03/07 00:56:53;;;;;;;26.40;17.80;;;;;;;9.04;45.60;101984.30;109903;1254;1003146;-55
2024/03/07 00:59:20;;;;;;;28.10;18.70;;;;;;;9.03;45.37;101982.55;110612;1263;22312;-55
2024/03/07 01:01:49;;;;;;;28.80;17.60;;;;;;;9.01;45.49;101983.42;110609;1263;22845;-54
2024/03/07 01:04:17;;;;;;;29.90;19.50;;;;;;;8.98;45.65;101980.80;110644;1254;22998;-55
2024/03/07 01:06:44;;;;;;;26.10;17.60;;;;;;;8.93;45.48;101984.94;109883;1263;1002514;-54
2024/03/07 01:09:14;;;;;;;27.20;19.10;;;;;;;8.89;45.56;101987.35;110625;1257;22743;-54
2024/03/07 01:11:45;;;;;;;28.50;19.20;;;;;;;8.85;45.83;101990.45;110660;1250;22370;-55
2024/03/07 01:14:13;;;;;;;;;;;;;;;8.83;45.95;101990.45;110420;1269;22514;-54
2024/03/07 01:16:40;;;;;;;29.90;19.90;;;;;;;8.82;45.89;101992.16;110610;1256;22341;-54
2024/03/07 01:19:08;;;;;;;29.30;18.90;;;;;;;8.79;45.95;101990.77;110668;1260;22125;-55
2024/03/07 01:21:34;;;;;;;29.90;20.60;;;;;;;8.77;46.09;101990.73;110389;1259;22208;-55
2024/03/07 01:24:05;;;;;;;27.30;18.80;;;;;;;8.75;45.87;101987.27;110454;1259;22244;-55
2024/03/07 01:26:33;;;;;;;29.10;20.50;;;;;;;8.73;45.86;101986.91;110671;1263;22427;-55
2024/03/07 01:29:00;;;;;;;25.50;18.80;;;;;;;8.71;45.86;101990.02;110671;1260;22353;-54
2024/03/07 01:31:27;;;;;;;29.50;20.10;;;;;;;8.70;45.79;101989.83;110329;1268;22173;-54
2024/03/07 01:33:53;;;;;;;32.30;21.00;;;;;;;8.68;46.08;101987.76;109858;1256;1003109;-55
2024/03/07 01:36:21;;;;;;;32.40;20.30;;;;;;;8.67;46.02;101989.66;110621;1263;22296;-55
2024/03/07 01:38:48;;;;;;;29.50;20.50;;;;;;;8.66;45.91;101990.16;110582;1256;22390;-55
2024/03/07 01:41:15;;;;;;;38.60;22.70;;;;;;;8.65;45.91;101991.20;110603;1257;23082;-55
2024/03/07 01:43:42;;;;;;;36.00;23.30;;;;;;;8.47;46.21;101996.27;110457;1258;22154;-55
2024/03/07 01:46:29;;;;;;;33.40;22.30;;;;;;;8.33;46.51;101995.65;110390;1270;22324;-54
2024/03/07 01:48:56;;;;;;;34.50;21.70;;;;;;;8.29;46.43;101992.52;110270;1269;22188;-54
2024/03/07 01:51:22;;;;;;;35.60;22.20;;;;;;;8.27;46.65;101990.25;110205;1266;22272;-54
2024/03/07 01:53:49;;;;;;;33.80;22.00;;;;;;;8.23;46.69;101992.97;110234;1273;22179;-55
2024/03/07 01:56:16;;;;;;;32.30;22.50;;;;;;;8.21;46.60;101992.59;110280;1272;23182;-54
2024/03/07 01:58:43;;;;;;;34.10;22.60;;;;;;;8.17;46.33;101993.61;110368;1256;22471;-55
2024/03/07 02:01:09;;;;;;;32.70;22.70;;;;;;;8.25;46.32;101993.00;110241;1268;22225;-55
2024/03/07 02:03:36;;;;;;;36.20;23.10;;;;;;;8.40;46.11;101995.02;110279;1266;22368;-55
2024/03/07 02:06:03;;;;;;;33.10;22.10;;;;;;;8.43;45.92;101999.02;110677;1263;23063;-54
2024/03/07 02:08:31;;;;;;;37.70;23.50;;;;;;;8.42;45.71;102002.30;110613;1255;22336;-54
2024/03/07 02:10:58;;;;;;;36.30;24.20;;;;;;;8.41;46.02;101999.02;110633;1266;22128;-54
2024/03/07 02:13:25;;;;;;;33.90;23.60;;;;;;;8.40;45.95;101999.34;110614;1257;22358;-54
2024/03/07 02:15:52;;;;;;;38.30;25.00;;;;;;;8.39;46.09;102004.52;110594;1257;22413;-55
2024/03/07 02:18:22;;;;;;;39.70;24.60;;;;;;;8.37;46.11;102006.92;110649;1260;22360;-55
2024/03/07 02:20:49;;;;;;;35.20;24.70;;;;;;;8.36;46.03;102009.67;110597;1254;22164;-55
2024/03/07 02:23:16;;;;;;;34.20;23.40;;;;;;;8.34;46.06;102005.86;110614;1254;22370;-54
2024/03/07 02:25:43;;;;;;;34.40;23.40;;;;;;;8.32;46.25;102005.16;110636;1257;22366;-54
2024/03/07 02:28:09;;;;;;;40.10;25.10;;;;;;;8.32;46.57;102003.61;110492;1257;22913;-54
2024/03/07 02:30:36;;;;;;;35.90;23.90;;;;;;;8.33;46.53;102001.35;109841;1263;1002198;-54
2024/03/07 02:33:06;;;;;;;33.50;23.80;;;;;;;8.30;46.23;102002.20;110627;1266;22143;-54
2024/03/07 02:35:35;;;;;;;36.80;24.70;;;;;;;8.30;46.19;102009.98;110459;1254;22418;-55
2024/03/07 02:38:03;;;;;;;35.40;25.40;;;;;;;8.29;46.29;102008.92;109855;1254;1002268;-55
2024/03/07 02:40:30;;;;;;;37.40;23.30;;;;;;;8.31;46.39;102010.51;110627;1256;22603;-54
2024/03/07 02:42:57;;;;;;;35.00;24.40;;;;;;;8.32;46.21;102014.84;109639;1257;1002333;-54
2024/03/07 02:45:25;;;;;;;38.40;25.60;;;;;;;8.33;46.21;102012.95;110575;1256;22338;-55
2024/03/07 02:47:53;;;;;;;38.20;25.40;;;;;;;8.31;46.03;102013.09;110628;1254;22163;-55
2024/03/07 02:50:21;;;;;;;40.90;25.90;;;;;;;8.28;46.45;102014.81;110590;1254;22273;-55
2024/03/07 02:52:49;;;;;;;38.10;25.60;;;;;;;8.26;46.44;102012.54;110456;1267;249432;-55
2024/03/07 02:55:16;;;;;;;35.20;24.10;;;;;;;8.23;46.56;102018.89;109835;1257;1002297;-55
2024/03/07 02:57:43;;;;;;;36.50;23.90;;;;;;;8.23;46.48;102018.37;109901;1263;1002640;-56
2024/03/07 03:00:19;;;;;;;35.40;24.10;;;;;;;8.24;46.42;102025.64;109837;1256;1002085;-55
2024/03/07 03:02:49;;;;;;;36.60;24.90;;;;;;;8.24;46.51;102026.51;110474;1259;22396;-55
2024/03/07 03:05:18;;;;;;;36.10;23.60;;;;;;;8.23;46.45;102023.90;110580;1272;23082;-55
2024/03/07 03:07:55;;;;;;;36.80;23.10;;;;;;;8.22;46.41;102023.89;109848;1254;1002106;-55
2024/03/07 03:10:33;;;;;;;41.30;26.30;;;;;;;8.22;46.52;102021.64;110612;1254;23090;-55
2024/03/07 03:13:00;;;;;;;37.60;25.00;;;;;;;8.23;46.57;102025.98;109850;1255;1002372;-55
2024/03/07 03:15:28;;;;;;;38.80;24.50;;;;;;;8.24;46.64;102024.42;110437;1259;22131;-54
2024/03/07 03:17:57;;;;;;;37.80;24.30;;;;;;;8.24;46.44;102024.77;110576;1274;22123;-55
2024/03/07 03:20:24;;;;;;;35.30;23.30;;;;;;;8.24;46.54;102026.15;109891;1257;1002746;-54
2024/03/07 03:22:52;;;;;;;40.90;24.50;;;;;;;8.24;46.50;102027.02;110545;1273;22802;-54
2024/03/07 03:25:39;;;;;;;30.50;22.30;;;;;;;8.23;46.45;102032.72;110666;1267;22296;-54
2024/03/07 03:28:08;;;;;;;34.60;22.60;;;;;;;8.22;46.41;102031.16;110638;1254;22365;-54
2024/03/07 03:30:38;;;;;;;34.90;22.80;;;;;;;8.19;46.29;102033.90;110652;1254;23183;-54
2024/03/07 03:33:08;;;;;;;33.70;22.60;;;;;;;8.18;46.48;102031.30;110634;1260;22895;-54
2024/03/07 03:35:36;;;;;;;31.90;22.40;;;;;;;8.17;46.47;102028.69;110637;1266;22859;-55
2024/03/07 03:38:03;;;;;;;33.50;23.20;;;;;;;8.13;46.37;102029.00;110651;1254;22942;-54
2024/03/07 03:40:30;;;;;;;36.40;24.10;;;;;;;8.10;46.52;102029.33;110644;1254;22658;-54
2024/03/07 03:42:57;;;;;;;34.60;23.90;;;;;;;8.07;46.53;102033.11;109862;1256;1002558;-54
2024/03/07 03:45:25;;;;;;;31.80;22.10;;;;;;;8.06;46.74;102037.07;110571;1257;22130;-55
2024/03/07 03:47:52;;;;;;;34.90;22.70;;;;;;;8.05;46.92;102033.59;110691;1256;22281;-55
2024/03/07 03:50:19;;;;;;;30.10;21.70;;;;;;;8.06;46.86;102038.10;110440;1260;23016;-54
2024/03/07 03:52:45;;;;;;;35.80;22.20;;;;;;;8.06;46.79;102038.28;110677;1255;23040;-55
2024/03/07 03:55:13;;;;;;;31.40;21.80;;;;;;;8.05;46.66;102041.55;110602;1256;23056;-54
2024/03/07 03:57:41;;;;;;;35.00;21.90;;;;;;;8.03;46.67;102039.13;110566;1268;22329;-54
2024/03/07 04:00:16;;;;;;;32.20;23.10;;;;;;;8.01;46.87;102038.25;110632;1257;22347;-55
2024/03/07 04:02:49;;;;;;;32.90;22.90;;;;;;;8.00;46.81;102040.98;110646;1262;22361;-55
2024/03/07 04:05:18;;;;;;;32.20;21.90;;;;;;;8.00;47.00;102040.83;109666;1272;1002529;-55
2024/03/07 04:07:45;;;;;;;32.90;21.50;;;;;;;7.98;46.99;102043.73;110603;1263;22393;-55
2024/03/07 04:10:12;;;;;;;36.10;23.00;;;;;;;7.97;46.92;102045.45;110628;1266;22111;-55
2024/03/07 04:12:40;;;;;;;33.60;21.60;;;;;;;7.95;46.90;102047.00;109830;1263;1002964;-54
2024/03/07 04:15:07;;;;;;;29.30;22.20;;;;;;;7.95;47.12;102051.83;110593;1263;22300;-55
2024/03/07 04:17:36;;;;;;;34.00;21.90;;;;;;;7.94;47.13;102050.09;109892;1256;1002458;-54
2024/03/07 04:20:07;;;;;;;31.70;21.70;;;;;;;7.92;47.05;102052.30;110579;1256;22134;-55
2024/03/07 04:22:34;;;;;;;30.20;21.60;;;;;;;7.91;47.12;102052.30;110617;1254;22784;-55
2024/03/07 04:25:01;;;;;;;34.20;22.20;;;;;;;7.91;47.34;102055.23;110627;1257;22295;-55
2024/03/07 04:27:28;;;;;;;33.00;21.10;;;;;;;7.90;47.26;102055.92;110651;1266;22110;-54
2024/03/07 04:29:55;;;;;;;32.90;22.20;;;;;;;7.90;47.33;102063.36;110644;1257;23028;-54
2024/03/07 04:32:23;;;;;;;32.40;21.00;;;;;;;7.91;47.42;102064.91;110627;1257;22398;-55
2024/03/07 04:34:49;;;;;;;27.30;20.60;;;;;;;7.91;47.29;102070.25;110617;1260;22456;-55
2024/03/07 04:37:16;;;;;;;27.30;20.00;;;;;;;7.91;47.33;102077.86;110463;1259;22118;-55
2024/03/07 04:39:43;;;;;;;29.90;19.90;;;;;;;7.91;47.25;102084.09;110587;1256;22407;-55
2024/03/07 04:42:09;;;;;;;31.30;21.50;;;;;;;7.92;47.37;102085.15;110705;1263;22393;-55
2024/03/07 04:44:36;;;;;;;30.70;21.90;;;;;;;7.94;47.47;102087.06;110448;1267;22189;-54
2024/03/07 04:47:04;;;;;;;30.60;21.10;;;;;;;7.94;47.24;102087.91;109835;1266;1002233;-55
2024/03/07 04:49:31;;;;;;;32.30;21.10;;;;;;;7.94;47.30;102091.02;110406;1269;22294;-55
2024/03/07 04:51:59;;;;;;;29.60;20.80;;;;;;;7.93;47.47;102091.54;109847;1255;1002722;-55
2024/03/07 04:54:26;;;;;;;29.80;21.00;;;;;;;7.94;47.58;102091.73;110592;1254;22492;-55
2024/03/07 04:56:53;;;;;;;31.70;20.90;;;;;;;7.96;47.41;102096.23;109864;1257;1002329;-55
2024/03/07 04:59:21;;;;;;;32.00;21.50;;;;;;;7.96;47.29;102101.77;110621;1263;22835;-55
2024/03/07 05:01:49;;;;;;;29.00;21.30;;;;;;;7.98;47.49;102102.14;110624;1254;22393;-54
2024/03/07 05:04:16;;;;;;;28.30;20.70;;;;;;;8.00;47.40;102099.06;110590;1263;22216;-55
2024/03/07 05:06:43;;;;;;;30.60;21.10;;;;;;;8.01;47.32;102103.05;110587;1267;22864;-54
2024/03/07 05:09:22;;;;;;;29.70;21.10;;;;;;;8.02;47.21;102107.71;110576;1264;22144;-54
2024/03/07 05:11:52;;;;;;;28.80;20.80;;;;;;;8.02;47.31;102114.11;110649;1256;22278;-54
2024/03/07 05:14:20;;;;;;;32.40;21.60;;;;;;;8.04;47.42;102116.55;109818;1262;1002319;-55
2024/03/07 05:17:01;;;;;;;27.00;20.20;;;;;;;8.07;47.56;102114.84;110537;1256;22518;-55
2024/03/07 05:19:29;;;;;;;;;;;;;;;8.10;47.26;102111.77;110465;1254;22436;-55
2024/03/07 05:21:56;;;;;;;32.00;20.10;;;;;;;8.11;47.29;102114.52;109839;1256;1002750;-55
2024/03/07 05:24:22;;;;;;;32.10;19.60;;;;;;;8.09;47.21;102115.05;109871;1257;1002750;-54
2024/03/07 05:26:52;;;;;;;29.20;19.90;;;;;;;8.09;47.10;102114.36;110602;1256;22094;-55
2024/03/07 05:29:19;;;;;;;31.10;19.90;;;;;;;8.10;47.09;102109.52;110619;1256;22107;-54
2024/03/07 05:31:49;;;;;;;30.10;20.10;;;;;;;8.11;47.18;102112.81;110582;1257;22249;-55
2024/03/07 05:34:18;;;;;;;27.70;19.30;;;;;;;8.11;47.08;102107.64;110408;1259;22280;-56
2024/03/07 05:36:46;;;;;;;24.70;18.50;;;;;;;8.11;47.10;102110.05;110492;1266;22432;-55
2024/03/07 05:39:14;;;;;;;29.80;20.10;;;;;;;8.11;47.02;102108.33;110631;1263;22356;-55
2024/03/07 05:41:42;;;;;;;30.00;19.80;;;;;;;8.11;46.98;102115.05;110605;1260;22383;-55
2024/03/07 05:44:09;;;;;;;29.20;19.80;;;;;;;8.12;46.97;102114.19;110444;1259;22387;-54
2024/03/07 05:46:45;;;;;;;30.20;20.10;;;;;;;8.12;47.14;102118.02;110613;1256;22963;-55
2024/03/07 05:49:13;;;;;;;28.50;19.60;;;;;;;8.14;47.15;102123.56;110599;1257;22395;-55
2024/03/07 05:51:41;;;;;;;26.70;19.30;;;;;;;8.15;47.04;102123.92;110599;1271;22183;-55
2024/03/07 05:54:08;;;;;;;29.20;19.80;;;;;;;8.14;46.91;102124.59;110593;1263;22393;-55
2024/03/07 05:56:35;;;;;;;31.60;20.30;;;;;;;8.12;46.97;102121.80;110662;1263;22393;-55
2024/03/07 05:59:07;;;;;;;26.70;18.90;;;;;;;8.13;47.18;102125.63;109845;1260;1002992;-55
2024/03/07 06:01:34;;;;;;;29.20;19.30;;;;;;;8.16;47.22;102127.21;110635;1266;22389;-55
2024/03/07 06:04:01;;;;;;;26.50;19.40;;;;;;;8.20;47.29;102124.48;109666;1255;1002519;-55
2024/03/07 06:06:31;;;;;;;25.70;17.40;;;;;;;8.23;47.05;102127.45;109861;1256;1002377;-54
2024/03/07 06:09:08;;;;;;;27.30;19.70;;;;;;;8.24;47.03;102131.10;109886;1257;1002521;-54
2024/03/07 06:11:36;;;;;;;28.30;19.70;;;;;;;8.27;47.13;102131.84;110450;1267;23078;-55
2024/03/07 06:14:03;;;;;;;26.20;19.60;;;;;;;8.28;47.19;102136.35;110600;1255;22393;-55
2024/03/07 06:16:32;;;;;;;27.80;20.40;;;;;;;8.32;47.34;102139.66;109871;1255;1002500;-54
2024/03/07 06:19:02;;;;;;;28.30;19.90;;;;;;;8.33;47.14;102142.29;109874;1263;1002442;-54
2024/03/07 06:21:32;;;;;;;25.60;18.50;;;;;;;8.35;47.19;102143.66;110625;1257;23080;-54
2024/03/07 06:24:00;;;;;;;24.90;18.70;;;;;;;8.37;47.19;102141.27;109474;1267;1002281;-55
2024/03/07 06:26:45;;;;;;;28.30;19.40;;;;;;;8.39;47.09;102138.52;109827;1263;1006178;-55
2024/03/07 06:29:13;;;;;;;26.10;19.20;;;;;;;8.40;47.09;102139.56;110599;1256;22123;-55
2024/03/07 06:31:43;;;;;;;28.50;19.30;;;;;;;8.40;46.92;102147.52;110654;1263;22523;-55
2024/03/07 06:34:09;;;;;;;31.70;19.80;;;;;;;8.41;46.97;102151.34;110587;1254;22130;-55
2024/03/07 06:36:36;;;;;;;27.80;19.20;;;;;;;8.41;46.85;102153.95;110602;1257;23000;-55
2024/03/07 06:39:06;;;;;;;27.30;18.50;;;;;;;8.43;46.87;102153.79;110570;1270;22115;-54
2024/03/07 06:41:33;;;;;;;27.20;19.20;;;;;;;8.46;46.78;102155.54;110408;1260;22306;-54
2024/03/07 06:44:00;;;;;;;29.30;19.60;;;;;;;8.48;46.76;102158.14;109804;1275;1003105;-55
2024/03/07 06:46:28;;;;;;;29.30;19.30;;;;;;;8.48;46.69;102157.63;110601;1263;22395;-55
2024/03/07 06:48:56;;;;;;;29.50;19.30;;;;;;;8.49;46.90;102158.51;110644;1252;22278;-55
2024/03/07 06:51:24;;;;;;;24.80;18.90;;;;;;;8.50;46.95;102159.20;109835;1267;1002501;-55
2024/03/07 06:53:51;;;;;;;29.60;19.40;;;;;;;8.52;47.00;102161.46;110661;1262;22318;-54
2024/03/07 06:56:18;;;;;;;26.00;18.20;;;;;;;8.53;46.87;102168.56;110585;1263;22278;-54
2024/03/07 06:58:48;;;;;;;27.70;18.30;;;;;;;8.57;47.03;102162.71;110599;1263;22846;-55
2024/03/07 07:01:15;;;;;;;27.00;18.20;;;;;;;8.63;46.76;102167.45;110450;1257;22407;-55
2024/03/07 07:03:46;;;;;;;24.80;18.20;;;;;;;8.68;46.55;102172.67;110676;1254;22772;-54
2024/03/07 07:06:13;;;;;;;27.50;18.20;;;;;;;8.72;46.63;102174.78;110489;1257;22396;-54
2024/03/07 07:08:40;;;;;;;26.90;17.90;;;;;;;8.77;46.63;102177.27;110588;1254;22191;-55
2024/03/07 07:11:07;;;;;;;22.60;17.00;;;;;;;8.82;46.67;102176.61;109813;1274;1002705;-54
2024/03/07 07:13:34;;;;;;;24.70;17.20;;;;;;;8.87;46.27;102178.90;110582;1264;22359;-55
2024/03/07 07:16:01;;;;;;;24.60;17.20;;;;;;;8.90;46.07;102170.08;110610;1251;22409;-55
2024/03/07 07:18:30;;;;;;;26.60;17.20;;;;;;;8.95;46.27;102172.72;110573;1254;22275;-55
2024/03/07 07:20:58;;;;;;;21.30;16.20;;;;;;;9.01;45.98;102173.98;110488;1270;22364;-55
2024/03/07 07:23:26;;;;;;;23.70;17.80;;;;;;;9.04;45.84;102172.10;110619;1254;23099;-54
2024/03/07 07:25:53;;;;;;;25.50;17.90;;;;;;;9.05;45.55;102176.25;110599;1267;22498;-55
2024/03/07 07:28:21;;;;;;;28.90;18.60;;;;;;;9.06;45.53;102180.77;110529;1275;22239;-55
2024/03/07 07:30:49;;;;;;;23.80;17.30;;;;;;;9.07;45.46;102176.79;110402;1270;23051;-55
2024/03/07 07:33:16;;;;;;;22.10;17.60;;;;;;;9.11;45.58;102180.98;110501;1276;22287;-53
2024/03/07 07:35:43;;;;;;;23.10;16.50;;;;;;;9.14;45.29;102181.34;110529;1266;22324;-53
2024/03/07 07:38:10;;;;;;;25.40;17.00;;;;;;;9.16;45.10;102187.05;110562;1254;22909;-53
2024/03/07 07:40:37;;;;;;;22.90;17.00;;;;;;;9.17;45.18;102191.91;110559;1276;22310;-53
2024/03/07 07:43:04;;;;;;;25.30;16.90;;;;;;;9.20;45.08;102191.23;110515;1269;22399;-53
2024/03/07 07:45:32;;;;;;;23.50;16.10;;;;;;;9.25;45.16;102193.37;109484;1273;1002372;-53
2024/03/07 07:47:59;;;;;;;23.10;16.40;;;;;;;9.28;44.80;102195.98;109790;1269;1003106;-53
2024/03/07 07:50:27;;;;;;;24.90;18.10;;;;;;;9.30;44.97;102196.17;110555;1270;22345;-53
2024/03/07 07:52:56;;;;;;;25.50;17.80;;;;;;;9.32;45.06;102200.69;109746;1276;1006499;-53
2024/03/07 07:55:27;;;;;;;27.40;17.80;;;;;;;9.38;44.99;102204.00;109734;1270;1002861;-53
2024/03/07 07:57:58;;;;;;;28.60;17.90;;;;;;;9.39;44.70;102206.09;110529;1273;22646;-53
2024/03/07 08:00:28;;;;;;;24.70;17.60;;;;;;;9.39;44.82;102209.73;110469;1269;22166;-53
2024/03/07 08:02:58;;;;;;;26.90;18.70;;;;;;;9.39;44.63;102213.36;110513;1269;22612;-53
2024/03/07 08:05:29;;;;;;;24.30;18.80;;;;;;;9.39;44.98;102219.26;110518;1276;22343;-53
2024/03/07 08:07:58;;;;;;;27.60;18.50;;;;;;;9.40;45.06;102221.35;110520;1270;22244;-53
2024/03/07 08:10:28;;;;;;;27.20;19.60;;;;;;;9.43;44.83;102224.30;110521;1270;22141;-53
2024/03/07 08:12:56;;;;;;;30.60;19.00;;;;;;;9.45;44.78;102222.40;109819;1270;1002353;-53
2024/03/07 08:15:26;;;;;;;24.70;19.10;;;;;;;9.47;44.59;102224.69;109892;1266;1002190;-53
2024/03/07 08:17:55;;;;;;;26.00;18.60;;;;;;;9.47;44.67;102227.96;109832;1270;1002524;-53
2024/03/07 08:20:22;;;;;;;22.90;17.20;;;;;;;9.47;44.83;102227.09;110658;1267;22187;-54
2024/03/07 08:22:52;;;;;;;24.40;18.40;;;;;;;9.50;44.73;102228.84;110635;1267;22163;-53
2024/03/07 08:25:20;;;;;;;25.80;18.60;;;;;;;9.51;44.79;102231.30;110653;1266;22269;-53
2024/03/07 08:27:48;;;;;;;22.40;17.80;;;;;;;9.51;44.60;102230.59;110598;1274;22405;-53
2024/03/07 08:30:15;;;;;;;26.10;18.90;;;;;;;9.50;44.74;102233.89;109855;1274;1002232;-53
2024/03/07 08:32:46;;;;;;;25.50;19.40;;;;;;;9.51;44.43;102237.52;110437;1267;22599;-53
2024/03/07 08:35:15;;;;;;;25.40;18.80;;;;;;;9.47;44.42;102236.80;110383;1267;22428;-53
2024/03/07 08:37:45;;;;;;;25.90;19.00;;;;;;;9.44;44.44;102232.10;109722;1267;1002329;-53
2024/03/07 08:40:19;;;;;;;26.20;19.20;;;;;;;9.41;44.50;102237.11;109827;1274;1002385;-53
2024/03/07 08:42:53;;;;;;;23.50;18.30;;;;;;;9.40;44.53;102237.64;109822;1266;1002629;-53
2024/03/07 08:45:20;;;;;;;22.90;17.40;;;;;;;9.40;44.43;102237.27;109869;1266;1002880;-53
2024/03/07 08:47:48;;;;;;;25.30;19.00;;;;;;;9.41;44.54;102235.20;109857;1267;1003410;-53
2024/03/07 08:50:17;;;;;;;23.10;17.50;;;;;;;9.44;44.63;102233.83;110606;1274;23165;-53
2024/03/07 08:52:45;;;;;;;23.00;17.80;;;;;;;9.45;44.37;102234.02;109820;1266;1002235;-53
2024/03/07 08:55:14;;;;;;;22.90;17.30;;;;;;;9.46;44.48;102234.36;110433;1274;22323;-53
2024/03/07 08:57:41;;;;;;;24.30;17.20;;;;;;;9.49;44.42;102238.20;110574;1267;22156;-53
2024/03/07 09:00:10;;;;;;;24.40;18.40;;;;;;;9.53;44.30;102238.92;110582;1266;22914;-53
2024/03/07 09:02:38;;;;;;;27.40;18.40;;;;;;;9.56;44.41;102242.58;110584;1267;22370;-53
2024/03/07 09:05:05;;;;;;;28.30;19.30;;;;;;;9.59;44.40;102245.17;109821;1274;1002286;-54
2024/03/07 09:07:33;;;;;;;24.80;18.60;;;;;;;9.60;44.08;102244.50;110618;1266;22427;-53
2024/03/07 09:10:00;;;;;;;25.10;17.50;;;;;;;9.60;44.15;102243.80;110424;1269;22330;-53
2024/03/07 09:12:27;;;;;;;24.90;19.00;;;;;;;9.63;44.26;102250.58;110472;1274;23127;-53
2024/03/07 09:14:56;;;;;;;24.40;17.80;;;;;;;9.66;44.23;102248.36;110553;1273;22244;-53
2024/03/07 09:17:23;;;;;;;28.10;17.90;;;;;;;9.71;44.35;102247.69;110632;1267;22390;-53
2024/03/07 09:19:50;;;;;;;24.80;17.70;;;;;;;9.75;44.27;102245.98;110638;1266;22138;-53
2024/03/07 09:22:18;;;;;;;23.60;17.90;;;;;;;9.82;44.24;102249.82;109855;1267;1002518;-53
2024/03/07 09:24:45;;;;;;;23.50;17.60;;;;;;;9.88;44.13;102252.79;109818;1266;1002804;-53
2024/03/07 09:27:15;;;;;;;24.10;18.40;;;;;;;9.93;44.14;102254.89;110591;1274;23141;-53
2024/03/07 09:29:42;;;;;;;24.80;18.60;;;;;;;9.98;44.01;102255.27;110542;1274;22145;-53
2024/03/07 09:32:09;;;;;;;25.30;18.70;;;;;;;10.01;43.89;102253.20;110607;1274;22281;-53
2024/03/07 09:34:36;;;;;;;28.90;19.50;;;;;;;10.01;43.68;102253.90;109862;1266;1006313;-53
2024/03/07 09:37:04;;;;;;;24.10;17.10;;;;;;;10.02;43.77;102251.81;109847;1266;1002731;-53
2024/03/07 09:39:31;;;;;;;29.00;19.10;;;;;;;10.03;43.86;102250.77;109863;1266;1003024;-53
2024/03/07 09:41:58;;;;;;;20.40;17.00;;;;;;;10.06;43.87;102252.01;109879;1266;1002329;-54
2024/03/07 09:44:25;;;;;;;25.60;20.10;;;;;;;10.08;43.63;102255.13;110619;1266;22383;-53
2024/03/07 09:46:55;;;;;;;25.70;18.90;;;;;;;10.05;43.33;102252.02;110264;1272;22553;-53
2024/03/07 09:49:22;;;;;;;27.60;19.50;;;;;;;10.03;43.65;102253.39;110116;1274;22406;-53
2024/03/07 09:51:54;;;;;;;24.90;18.70;;;;;;;10.04;43.78;102254.09;110313;1270;22305;-53
2024/03/07 09:54:24;;;;;;;25.90;18.50;;;;;;;10.05;43.41;102254.09;110430;1276;22378;-54
2024/03/07 09:56:54;;;;;;;27.60;19.40;;;;;;;10.02;43.50;102258.59;110471;1268;22371;-54
2024/03/07 09:59:21;;;;;;;23.40;17.70;;;;;;;10.02;43.70;102254.59;110499;1276;23152;-54
2024/03/07 10:01:50;;;;;;;25.40;19.00;;;;;;;10.06;43.56;102257.20;109303;1273;1002858;-55
2024/03/07 10:04:20;;;;;;;30.90;18.50;;;;;;;10.07;43.43;102251.50;110123;1277;22909;-55
2024/03/07 10:06:48;;;;;;;25.30;18.30;;;;;;;10.07;43.62;102246.63;109970;1275;22164;-54
2024/03/07 10:09:15;;;;;;;23.80;18.80;;;;;;;10.09;43.46;102252.02;110098;1272;22168;-54
2024/03/07 10:11:42;;;;;;;24.00;19.00;;;;;;;10.10;43.42;102256.90;110030;1279;22577;-55
2024/03/07 10:14:10;;;;;;;25.40;18.10;;;;;;;10.16;43.28;102253.98;110120;1279;22845;-54
2024/03/07 10:16:38;;;;;;;24.20;18.10;;;;;;;10.19;43.05;102255.58;109360;1279;1003051;-55
2024/03/07 10:19:05;;;;;;;26.60;18.30;;;;;;;10.17;42.93;102253.12;110149;1272;22146;-55
2024/03/07 10:21:33;;;;;;;27.10;19.20;;;;;;;10.11;42.83;102252.92;110327;1270;22315;-54
2024/03/07 10:24:07;;;;;;;27.00;19.10;;;;;;;10.08;42.96;102252.88;110015;1278;22410;-55
2024/03/07 10:26:35;;;;;;;24.70;19.50;;;;;;;10.06;43.20;102253.91;110324;1270;22260;-55
2024/03/07 10:29:02;;;;;;;24.70;18.60;;;;;;;10.07;43.21;102251.66;110067;1278;22288;-55
2024/03/07 10:31:32;;;;;;;26.40;18.60;;;;;;;10.10;43.36;102253.43;110317;1278;22202;-54
2024/03/07 10:34:00;;;;;;;22.40;16.60;;;;;;;10.19;43.28;102252.79;110575;1272;22878;-55
2024/03/07 10:36:30;;;;;;;22.40;16.80;;;;;;;10.26;43.00;102253.17;110597;1270;23006;-55
2024/03/07 10:39:14;;;;;;;26.40;18.10;;;;;;;10.29;42.67;102249.19;110447;1274;22185;-55
2024/03/07 10:41:48;;;;;;;26.10;18.30;;;;;;;10.30;42.54;102250.05;110562;1267;22402;-55
2024/03/07 10:44:21;;;;;;;26.50;18.30;;;;;;;10.29;42.59;102251.09;110188;1273;23216;-55
2024/03/07 10:46:52;;;;;;;24.10;17.90;;;;;;;10.30;42.73;102248.49;110370;1267;22467;-54
2024/03/07 10:49:23;;;;;;;24.90;17.70;;;;;;;10.33;42.64;102249.72;109857;1267;1002322;-55
2024/03/07 10:51:58;;;;;;;22.90;17.60;;;;;;;10.35;42.64;102248.50;110585;1274;22109;-55
2024/03/07 10:54:30;;;;;;;22.40;16.80;;;;;;;10.38;42.59;102249.90;109647;1269;1002775;-55
2024/03/07 10:57:05;;;;;;;23.50;17.20;;;;;;;10.41;42.41;102251.46;109687;1270;1002382;-55
2024/03/07 10:59:33;;;;;;;26.50;17.10;;;;;;;10.39;42.12;102250.26;110237;1272;22369;-54
2024/03/07 11:02:07;;;;;;;24.50;17.40;;;;;;;10.37;42.22;102247.48;109697;1269;1002260;-55
2024/03/07 11:04:35;;;;;;;25.40;17.60;;;;;;;10.34;41.90;102248.16;110111;1276;22438;-55
2024/03/07 11:07:01;;;;;;;24.30;17.30;;;;;;;10.32;41.84;102249.89;110106;1276;22425;-55
2024/03/07 11:09:32;;;;;;;26.20;17.30;;;;;;;10.33;42.07;102250.06;109685;1269;1002738;-54